Aurora, Utah
Current Conditions -  °F | °C
As of 5:15 PM on Saturday 25 Oct 2014 (Local Time) from KDTA Reporting Station
Clear Clear  
Wind Chill: 73°   Ceiling: Unl
Heat Index: 73°   Visibility: 10mi
Dew Point: 36°   Wind: 22mph
Humidity: 26%   Direction: 210°SSW
Pressure: 30.01"   Gusts: 29mph
Location:  38.92°N, 111.93°W
Report Text: KDTA 252315Z AUTO 21019G25KT 10SM CLR 23/02 A3001 RMK AO1 T02260023
Loading
Personal Weather Stations






























Interactive Weather Map
Tropical Storm Tracking
New forecast layout! Learn more

10-Day Weather Forecast

Advertisements
Track Severe Weather on mobile